Time;durP1;ratioP1;P1;durP2;ratioP2;P2;SDS_P1;SDS_P2;PMS_P1;PMS_P2;Temp;Humidity;BMP_temperature;BMP_pressure;BME280_temperature;BME280_humidity;BME280_pressure;Samples;Min_cycle;Max_cycle;Signal;HPM_P1;HPM_P2
2023/08/01 00:02:11;;;;;;;30.42;28.92;;;20.80;99.90;;;;;;5010759;28;20041;-72
2023/08/01 00:04:37;;;;;;;17.92;17.00;;;20.80;99.90;;;;;;5011605;28;20489;-73
2023/08/01 00:07:03;;;;;;;21.75;20.52;;;20.80;99.90;;;;;;5012023;28;20034;-75
2023/08/01 00:09:30;;;;;;;44.38;42.03;;;20.80;99.90;;;;;;5011476;28;20033;-75
2023/08/01 00:11:56;;;;;;;53.20;50.58;;;20.80;99.90;;;;;;4994605;28;20057;-72
2023/08/01 00:14:24;;;;;;;45.50;43.28;;;20.80;99.90;;;;;;5012508;28;20030;-72
2023/08/01 00:16:51;;;;;;;37.85;35.97;;;20.80;99.90;;;;;;5010380;28;20049;-72
2023/08/01 00:19:17;;;;;;;27.20;25.80;;;20.80;99.90;;;;;;5012645;28;20471;-72
2023/08/01 00:21:43;;;;;;;21.13;19.92;;;20.80;99.90;;;;;;5011714;28;20045;-72
2023/08/01 00:24:09;;;;;;;23.30;22.15;;;20.80;99.90;;;;;;5011359;28;20471;-75
2023/08/01 00:26:35;;;;;;;23.85;22.70;;;20.80;99.90;;;;;;5011985;28;20045;-75
2023/08/01 00:29:01;;;;;;;29.80;28.30;;;20.80;99.90;;;;;;5011270;28;20026;-75
2023/08/01 00:31:27;;;;;;;29.05;27.55;;;20.80;99.90;;;;;;5011581;28;20038;-73
2023/08/01 00:33:53;;;;;;;23.80;22.52;;;20.80;99.90;;;;;;5012359;28;20041;-72
2023/08/01 00:36:20;;;;;;;22.15;21.00;;;20.80;99.90;;;;;;5012131;28;20479;-72
2023/08/01 00:38:46;;;;;;;19.08;18.08;;;20.80;99.90;;;;;;5011190;28;20029;-72
2023/08/01 00:41:12;;;;;;;20.58;19.48;;;20.80;99.90;;;;;;5010566;28;20056;-72
2023/08/01 00:43:39;;;;;;;25.73;24.42;;;20.80;99.90;;;;;;5012197;28;20025;-72
2023/08/01 00:46:05;;;;;;;21.40;20.33;;;20.80;99.90;;;;;;5010355;28;20041;-72
2023/08/01 00:48:32;;;;;;;22.50;21.40;;;20.80;99.90;;;;;;5012120;28;20041;-72
2023/08/01 00:50:59;;;;;;;20.63;19.48;;;20.80;99.90;;;;;;5011283;28;20046;-73
2023/08/01 00:53:25;;;;;;;20.48;19.45;;;20.90;99.90;;;;;;5014993;28;20038;-73
2023/08/01 00:55:54;;;;;;;24.55;23.35;;;20.80;99.90;;;;;;5014567;28;20054;-73
2023/08/01 00:58:20;;;;;;;24.23;23.02;;;20.80;99.90;;;;;;5014748;28;20026;-72
2023/08/01 01:00:47;;;;;;;21.35;20.25;;;20.80;99.90;;;;;;5014130;28;20034;-73
2023/08/01 01:03:14;;;;;;;20.85;19.75;;;20.80;99.90;;;;;;5014446;28;20025;-73
2023/08/01 01:05:47;;;;;;;20.02;19.02;;;20.80;99.90;;;;;;5014437;28;20379;-73
2023/08/01 01:08:13;;;;;;;19.63;18.50;;;20.80;99.90;;;;;;5014630;28;20041;-73
2023/08/01 01:10:39;;;;;;;20.45;19.45;;;20.80;99.90;;;;;;5014357;28;20030;-73
2023/08/01 01:13:05;;;;;;;29.58;28.17;;;20.80;99.90;;;;;;5015712;28;20029;-72
2023/08/01 01:15:31;;;;;;;26.90;25.40;;;20.80;99.90;;;;;;5014913;28;20045;-72
2023/08/01 01:17:57;;;;;;;32.72;31.15;;;20.80;99.90;;;;;;5014193;28;20045;-73
2023/08/01 01:20:24;;;;;;;30.70;28.98;;;20.80;99.90;;;;;;5015200;28;20026;-74
2023/08/01 01:22:52;;;;;;;25.88;24.42;;;20.80;99.90;;;;;;5014429;28;20037;-74
2023/08/01 01:25:19;;;;;;;26.23;24.73;;;20.70;99.90;;;;;;5014223;28;20029;-76
2023/08/01 01:27:46;;;;;;;25.38;24.10;;;20.80;99.90;;;;;;5014344;28;20472;-75
2023/08/01 01:30:13;;;;;;;21.33;20.20;;;20.80;99.90;;;;;;4997681;28;20480;-75
2023/08/01 01:32:39;;;;;;;23.67;22.40;;;20.80;99.90;;;;;;5014034;28;20037;-75
2023/08/01 01:35:05;;;;;;;26.65;25.23;;;20.80;99.90;;;;;;5014186;28;20053;-75
2023/08/01 01:37:31;;;;;;;23.80;22.10;;;20.80;99.90;;;;;;5015052;28;20038;-75
2023/08/01 01:39:57;;;;;;;25.52;24.27;;;20.80;99.90;;;;;;5014196;28;20464;-75
2023/08/01 01:42:24;;;;;;;30.33;28.73;;;20.80;99.90;;;;;;5013766;28;20041;-75
2023/08/01 01:44:50;;;;;;;28.85;27.35;;;20.70;99.90;;;;;;5015290;28;20328;-75
2023/08/01 01:47:17;;;;;;;29.33;27.85;;;20.70;99.90;;;;;;5014335;28;20406;-75
2023/08/01 01:49:43;;;;;;;19.23;18.13;;;20.70;99.90;;;;;;5013822;28;20026;-75
2023/08/01 01:52:09;;;;;;;21.17;20.13;;;20.70;99.90;;;;;;5014860;28;20537;-75
2023/08/01 01:54:35;;;;;;;27.17;25.73;;;20.60;99.90;;;;;;5015167;28;20030;-75
2023/08/01 01:57:01;;;;;;;22.08;20.88;;;20.60;99.90;;;;;;5014471;28;20411;-75
2023/08/01 01:59:27;;;;;;;25.75;24.33;;;20.60;99.90;;;;;;5012087;28;20041;-75
2023/08/01 02:01:53;;;;;;;24.90;23.55;;;20.60;99.90;;;;;;5009655;28;20037;-75
2023/08/01 02:04:20;;;;;;;20.85;19.75;;;20.60;99.90;;;;;;5009142;28;20022;-75
2023/08/01 02:06:46;;;;;;;27.75;26.20;;;20.60;99.90;;;;;;5013448;28;20034;-75
2023/08/01 02:09:12;;;;;;;24.25;23.02;;;20.50;99.90;;;;;;5013500;28;20041;-75
2023/08/01 02:11:38;;;;;;;23.95;22.73;;;20.50;99.90;;;;;;5013153;28;20026;-74
2023/08/01 02:14:04;;;;;;;27.95;26.38;;;20.50;99.90;;;;;;5013605;28;20041;-75
2023/08/01 02:16:30;;;;;;;21.20;20.00;;;20.50;99.90;;;;;;5010892;28;20046;-75
2023/08/01 02:18:56;;;;;;;33.17;31.38;;;20.50;99.90;;;;;;5013464;28;20022;-74
2023/08/01 02:21:22;;;;;;;24.95;23.65;;;20.50;99.90;;;;;;5011674;28;20041;-75
2023/08/01 02:23:48;;;;;;;37.15;35.10;;;20.50;99.90;;;;;;5012037;28;20037;-75
2023/08/01 02:26:14;;;;;;;20.17;19.15;;;20.50;99.90;;;;;;5013050;28;20502;-75
2023/08/01 02:28:40;;;;;;;25.35;24.13;;;20.50;99.90;;;;;;4995850;28;20044;-75
2023/08/01 02:31:07;;;;;;;20.27;19.17;;;20.50;99.90;;;;;;5012052;28;20410;-75
2023/08/01 02:33:33;;;;;;;16.83;15.95;;;20.50;99.90;;;;;;5011895;28;20022;-74
2023/08/01 02:35:59;;;;;;;19.65;18.65;;;20.40;99.90;;;;;;5012889;28;20042;-75
2023/08/01 02:38:25;;;;;;;22.05;20.85;;;20.40;99.90;;;;;;4996498;28;20030;-75
2023/08/01 02:40:51;;;;;;;22.10;21.00;;;20.40;99.90;;;;;;5013955;28;20045;-75
2023/08/01 02:43:17;;;;;;;19.55;18.58;;;20.50;99.90;;;;;;5013001;28;20044;-75
2023/08/01 02:45:43;;;;;;;25.05;23.73;;;20.50;99.90;;;;;;5011869;28;20030;-74
2023/08/01 02:48:09;;;;;;;23.42;22.25;;;20.50;99.90;;;;;;5013027;28;20034;-75
2023/08/01 02:50:35;;;;;;;17.35;16.35;;;20.50;99.90;;;;;;5013503;28;20046;-75
2023/08/01 02:53:02;;;;;;;18.17;17.17;;;20.40;99.90;;;;;;5013943;28;20030;-74
2023/08/01 02:55:28;;;;;;;24.00;22.85;;;20.10;99.90;;;;;;5013618;28;20390;-73
2023/08/01 02:57:54;;;;;;;21.80;20.75;;;19.70;99.90;;;;;;5013855;28;20049;-74
2023/08/01 03:00:20;;;;;;;21.42;20.33;;;19.50;99.90;;;;;;5012751;28;20033;-73
2023/08/01 03:02:46;;;;;;;26.98;25.58;;;19.30;99.90;;;;;;5013772;28;20387;-74
2023/08/01 03:05:12;;;;;;;27.55;26.23;;;19.20;99.90;;;;;;5013381;28;20034;-73
2023/08/01 03:07:38;;;;;;;31.67;30.13;;;19.10;99.90;;;;;;5013804;28;20368;-74
2023/08/01 03:10:06;;;;;;;19.55;18.52;;;19.00;99.90;;;;;;5013783;28;20026;-73
2023/08/01 03:12:32;;;;;;;19.05;18.02;;;19.10;99.90;;;;;;5013329;28;20478;-73
2023/08/01 03:14:58;;;;;;;19.33;18.27;;;19.10;99.90;;;;;;4995130;28;20042;-73
2023/08/01 03:17:25;;;;;;;16.50;15.50;;;19.20;99.90;;;;;;4996688;28;20510;-73
2023/08/01 03:19:51;;;;;;;15.02;14.27;;;19.20;99.90;;;;;;4993963;28;20509;-73
2023/08/01 03:22:17;;;;;;;17.00;15.90;;;19.20;99.90;;;;;;5010940;28;20524;-74
2023/08/01 03:24:43;;;;;;;14.77;13.88;;;19.10;99.90;;;;;;5012287;28;20033;-74
2023/08/01 03:27:09;;;;;;;15.70;14.80;;;19.00;99.90;;;;;;5012068;28;20026;-75
2023/08/01 03:29:35;;;;;;;14.52;13.63;;;19.00;99.90;;;;;;5013080;28;20033;-75
2023/08/01 03:32:01;;;;;;;17.02;16.13;;;19.10;99.90;;;;;;5012657;28;20042;-76
2023/08/01 03:34:27;;;;;;;14.48;13.65;;;19.10;99.90;;;;;;5012030;28;20057;-75
2023/08/01 03:36:53;;;;;;;14.20;13.32;;;19.20;99.90;;;;;;5012880;28;20483;-74
2023/08/01 03:39:20;;;;;;;15.27;14.48;;;19.20;99.90;;;;;;5013302;28;20040;-75
2023/08/01 03:41:46;;;;;;;14.90;14.00;;;19.20;99.90;;;;;;5012791;28;20383;-75
2023/08/01 03:44:12;;;;;;;15.18;14.38;;;19.30;99.90;;;;;;5011748;28;20030;-74
2023/08/01 03:46:38;;;;;;;15.90;14.90;;;19.30;99.90;;;;;;5012276;28;20038;-75
2023/08/01 03:49:04;;;;;;;15.02;14.20;;;19.40;99.90;;;;;;5011658;28;20034;-75
2023/08/01 03:51:30;;;;;;;18.45;17.42;;;19.40;99.90;;;;;;5012519;28;20041;-75
2023/08/01 03:53:57;;;;;;;17.60;16.25;;;19.40;99.90;;;;;;5011843;28;20042;-75
2023/08/01 03:56:23;;;;;;;19.13;18.02;;;19.30;99.90;;;;;;5012488;28;20042;-75
2023/08/01 03:58:49;;;;;;;20.13;19.02;;;19.30;99.90;;;;;;5012598;28;20037;-75
2023/08/01 04:01:15;;;;;;;20.17;18.92;;;19.30;99.90;;;;;;5010750;28;20042;-75
2023/08/01 04:03:41;;;;;;;20.75;19.65;;;19.30;99.90;;;;;;5011328;28;20041;-75
2023/08/01 04:06:08;;;;;;;19.92;18.92;;;19.40;99.90;;;;;;5011282;28;20034;-75
2023/08/01 04:08:34;;;;;;;21.75;20.65;;;19.40;99.90;;;;;;5011603;28;20026;-75
2023/08/01 04:11:00;;;;;;;22.23;20.92;;;19.30;99.90;;;;;;5012542;28;20056;-75
2023/08/01 04:13:26;;;;;;;23.20;22.02;;;19.40;99.90;;;;;;5011060;28;20463;-75
2023/08/01 04:15:52;;;;;;;20.73;19.70;;;19.40;99.90;;;;;;5009415;28;20042;-75
2023/08/01 04:18:18;;;;;;;21.73;20.45;;;19.50;99.90;;;;;;4992938;28;20491;-75
2023/08/01 04:20:44;;;;;;;21.70;20.45;;;19.50;99.90;;;;;;4993215;28;20050;-75
2023/08/01 04:23:10;;;;;;;22.42;21.20;;;19.50;99.90;;;;;;4991498;28;20030;-75
2023/08/01 04:25:36;;;;;;;23.83;22.48;;;19.50;99.90;;;;;;4992372;28;20042;-75
2023/08/01 04:28:03;;;;;;;18.88;17.80;;;19.50;99.90;;;;;;4991474;28;20372;-75
2023/08/01 04:30:29;;;;;;;20.88;19.73;;;19.50;99.90;;;;;;4992432;28;20030;-75
2023/08/01 04:32:55;;;;;;;20.10;18.80;;;19.50;99.90;;;;;;4975662;28;20030;-75
2023/08/01 04:35:21;;;;;;;19.58;18.58;;;19.40;99.90;;;;;;4992889;28;20037;-75
2023/08/01 04:37:47;;;;;;;22.63;21.20;;;19.40;99.90;;;;;;4992894;28;20034;-75
2023/08/01 04:40:13;;;;;;;23.30;22.10;;;19.40;99.90;;;;;;4991683;28;20038;-73
2023/08/01 04:42:39;;;;;;;19.92;18.83;;;19.50;99.90;;;;;;4991490;28;20053;-74
2023/08/01 04:45:06;;;;;;;21.05;19.65;;;19.50;99.90;;;;;;4992474;28;20026;-73
2023/08/01 04:47:33;;;;;;;21.23;20.13;;;19.40;99.90;;;;;;4993013;28;20042;-74
2023/08/01 04:49:59;;;;;;;20.48;19.30;;;19.40;99.90;;;;;;5006540;28;20026;-74
2023/08/01 04:52:25;;;;;;;19.85;18.75;;;19.40;99.90;;;;;;4994703;28;20042;-74
2023/08/01 04:54:51;;;;;;;17.67;16.77;;;19.40;99.90;;;;;;5012390;28;20029;-74
2023/08/01 04:57:17;;;;;;;17.00;16.10;;;19.40;99.90;;;;;;5011939;28;20033;-74
2023/08/01 04:59:43;;;;;;;16.60;15.73;;;19.40;99.90;;;;;;5012440;28;20033;-73
2023/08/01 05:02:09;;;;;;;17.25;16.15;;;19.50;99.90;;;;;;5011721;28;20038;-74
2023/08/01 05:04:35;;;;;;;16.63;15.65;;;19.50;99.90;;;;;;5011056;28;20026;-74
2023/08/01 05:07:01;;;;;;;17.23;16.15;;;19.50;99.90;;;;;;5010643;28;20042;-74
2023/08/01 05:09:27;;;;;;;17.45;16.48;;;19.50;99.90;;;;;;5011127;28;20037;-74
2023/08/01 05:11:53;;;;;;;17.75;16.65;;;19.50;99.90;;;;;;5010573;28;20041;-74
2023/08/01 05:14:19;;;;;;;16.95;15.95;;;19.40;99.90;;;;;;5011041;28;20038;-73
2023/08/01 05:16:46;;;;;;;15.60;14.65;;;19.40;99.90;;;;;;5011409;28;20042;-74
2023/08/01 05:19:12;;;;;;;16.25;15.07;;;19.30;99.90;;;;;;5012135;28;20022;-74
2023/08/01 05:21:38;;;;;;;12.60;11.77;;;19.30;99.90;;;;;;5010961;28;20387;-74
2023/08/01 05:24:04;;;;;;;13.43;12.38;;;19.30;99.90;;;;;;5010745;28;20037;-74
2023/08/01 05:26:30;;;;;;;13.18;12.27;;;19.30;99.90;;;;;;5010601;28;20033;-75
2023/08/01 05:28:56;;;;;;;37.25;35.15;;;19.30;99.90;;;;;;5012193;28;20034;-75
2023/08/01 05:31:22;;;;;;;37.10;34.75;;;19.20;99.90;;;;;;5010380;28;20034;-74
2023/08/01 05:33:48;;;;;;;30.17;28.27;;;19.00;99.90;;;;;;5012034;28;20026;-75
2023/08/01 05:36:15;;;;;;;32.03;29.77;;;18.90;99.90;;;;;;5010576;28;20069;-74
2023/08/01 05:38:41;;;;;;;32.67;30.67;;;18.90;99.90;;;;;;5012958;28;20034;-74
2023/08/01 05:41:07;;;;;;;29.60;27.77;;;18.90;99.90;;;;;;5013109;28;20025;-74
2023/08/01 05:43:33;;;;;;;29.80;28.00;;;19.00;99.90;;;;;;5015195;28;20041;-74
2023/08/01 05:45:59;;;;;;;29.70;27.80;;;19.00;99.90;;;;;;5014947;28;20049;-74
2023/08/01 05:48:25;;;;;;;26.77;24.98;;;19.10;99.90;;;;;;5013859;28;20030;-74
2023/08/01 05:50:53;;;;;;;28.17;26.17;;;19.10;99.90;;;;;;5015141;28;20502;-74
2023/08/01 05:53:19;;;;;;;26.73;24.73;;;19.10;99.90;;;;;;5014936;28;20026;-76
2023/08/01 05:55:45;;;;;;;30.33;28.42;;;19.10;99.90;;;;;;5013864;28;20536;-75
2023/08/01 05:58:11;;;;;;;24.65;22.92;;;19.20;99.90;;;;;;4996321;28;20030;-75
2023/08/01 06:00:37;;;;;;;18.67;17.23;;;19.10;99.90;;;;;;5010335;28;20049;-75
2023/08/01 06:03:03;;;;;;;21.77;20.27;;;19.10;99.90;;;;;;4995478;28;20383;-75
2023/08/01 06:05:29;;;;;;;23.75;22.27;;;19.20;99.90;;;;;;5013433;28;20037;-75
2023/08/01 06:07:56;;;;;;;27.08;25.45;;;19.20;99.90;;;;;;5013165;28;20418;-75
2023/08/01 06:10:22;;;;;;;33.55;31.65;;;19.20;99.90;;;;;;5014876;28;20022;-75
2023/08/01 06:12:48;;;;;;;37.20;34.95;;;19.20;99.90;;;;;;5014762;28;20029;-75
2023/08/01 06:15:14;;;;;;;12.95;11.77;;;19.20;99.90;;;;;;5013166;28;20498;-74
2023/08/01 06:17:40;;;;;;;9.13;8.30;;;19.30;99.90;;;;;;5013236;28;20498;-74
2023/08/01 06:20:07;;;;;;;11.73;8.95;;;19.50;99.90;;;;;;5014711;28;20025;-75
2023/08/01 06:22:33;;;;;;;10.95;10.10;;;19.70;99.90;;;;;;5012876;28;20049;-74
2023/08/01 06:24:59;;;;;;;10.70;9.70;;;19.80;99.90;;;;;;4997366;28;20038;-74
2023/08/01 06:27:25;;;;;;;9.52;8.52;;;20.00;99.90;;;;;;5013420;28;20030;-75
2023/08/01 06:29:51;;;;;;;9.98;9.07;;;20.20;99.90;;;;;;5014564;28;20030;-74
2023/08/01 06:32:17;;;;;;;11.57;10.45;;;20.40;99.90;;;;;;5012718;28;20038;-74
2023/08/01 06:34:43;;;;;;;11.35;9.93;;;20.40;99.90;;;;;;5014321;28;20029;-75
2023/08/01 06:37:10;;;;;;;10.75;9.75;;;20.50;99.90;;;;;;5014026;28;20042;-74
2023/08/01 06:39:36;;;;;;;10.80;9.90;;;20.60;99.90;;;;;;5014308;28;20022;-75
2023/08/01 06:42:02;;;;;;;11.30;10.30;;;20.80;99.90;;;;;;5014282;28;20026;-74
2023/08/01 06:44:29;;;;;;;12.13;10.80;;;21.00;99.90;;;;;;5014144;28;20041;-74
2023/08/01 06:46:55;;;;;;;12.50;11.43;;;21.20;99.90;;;;;;5013903;28;20037;-74
2023/08/01 06:49:21;;;;;;;12.82;11.90;;;21.30;99.90;;;;;;5012313;28;20029;-74
2023/08/01 06:51:47;;;;;;;17.65;16.45;;;21.40;99.90;;;;;;5013523;28;20046;-75
2023/08/01 06:54:13;;;;;;;18.77;17.35;;;21.50;99.90;;;;;;5014058;28;20037;-74
2023/08/01 06:56:39;;;;;;;16.60;15.43;;;21.60;99.90;;;;;;5012722;28;20041;-75
2023/08/01 06:59:05;;;;;;;19.35;18.08;;;21.60;99.90;;;;;;5014198;28;20033;-75
2023/08/01 07:01:32;;;;;;;20.30;18.90;;;21.80;99.90;;;;;;5013474;28;20045;-75
2023/08/01 07:03:58;;;;;;;22.83;21.15;;;21.90;99.90;;;;;;5012626;28;20494;-75
2023/08/01 07:06:25;;;;;;;21.48;19.98;;;22.00;99.90;;;;;;5012363;28;20034;-74
2023/08/01 07:08:51;;;;;;;29.15;27.10;;;22.00;99.90;;;;;;5014068;28;20493;-74
2023/08/01 07:11:18;;;;;;;51.28;48.15;;;22.00;99.90;;;;;;5013546;28;20033;-74
2023/08/01 07:13:44;;;;;;;30.20;28.42;;;21.90;99.90;;;;;;5012450;28;20022;-74
2023/08/01 07:16:11;;;;;;;90.53;85.63;;;22.00;99.90;;;;;;5013054;28;20053;-75
2023/08/01 07:18:37;;;;;;;89.82;84.85;;;22.00;99.90;;;;;;5012351;28;20026;-74
2023/08/01 07:21:03;;;;;;;91.65;86.85;;;22.00;99.90;;;;;;5012053;28;20029;-74
2023/08/01 07:23:30;;;;;;;34.83;32.72;;;22.00;99.90;;;;;;5012436;28;20034;-74
2023/08/01 07:25:56;;;;;;;64.13;60.40;;;21.90;99.90;;;;;;5013503;28;20379;-76
2023/08/01 07:28:22;;;;;;;38.28;36.05;;;22.00;99.90;;;;;;5012318;28;20038;-77
2023/08/01 07:30:48;;;;;;;34.03;31.80;;;22.00;99.90;;;;;;5012958;28;20037;-77
2023/08/01 07:33:14;;;;;;;30.98;28.90;;;22.10;99.90;;;;;;5011955;28;20033;-77
2023/08/01 07:35:41;;;;;;;30.70;28.63;;;22.30;99.90;;;;;;5011884;28;20034;-77
2023/08/01 07:38:07;;;;;;;34.70;32.38;;;22.60;99.90;;;;;;5013265;28;20490;-76
2023/08/01 07:40:36;;;;;;;33.63;31.55;;;22.70;99.90;;;;;;5012158;28;20026;-76
2023/08/01 07:43:02;;;;;;;46.88;44.40;;;22.70;99.90;;;;;;5013196;28;20036;-77
2023/08/01 07:45:28;;;;;;;58.58;55.17;;;22.80;99.90;;;;;;5012822;28;20029;-77
2023/08/01 07:47:54;;;;;;;40.45;38.15;;;22.90;99.90;;;;;;5013033;28;20072;-77
2023/08/01 07:50:20;;;;;;;62.72;59.40;;;23.00;99.90;;;;;;5012491;28;20037;-75
2023/08/01 07:52:48;;;;;;;75.97;71.95;;;23.00;99.90;;;;;;5011958;28;20030;-75
2023/08/01 07:55:14;;;;;;;73.70;69.63;;;23.00;99.90;;;;;;5011887;28;20022;-75
2023/08/01 07:57:41;;;;;;;66.03;61.70;;;23.00;99.90;;;;;;5013122;28;20053;-75
2023/08/01 08:00:09;;;;;;;73.57;69.28;;;23.00;99.90;;;;;;5012036;28;20049;-76
2023/08/01 08:02:35;;;;;;;84.88;80.15;;;23.00;99.90;;;;;;5012946;28;20038;-78
2023/08/01 08:05:01;;;;;;;73.60;69.43;;;23.00;99.90;;;;;;5012560;28;20052;-76
2023/08/01 08:07:27;;;;;;;52.33;49.22;;;22.90;99.90;;;;;;5012825;28;20018;-75
2023/08/01 08:09:54;;;;;;;53.20;50.22;;;22.80;99.90;;;;;;5011490;28;20088;-76
2023/08/01 08:12:22;;;;;;;56.60;53.38;;;22.80;99.90;;;;;;5011404;28;20025;-75
2023/08/01 08:14:48;;;;;;;57.83;54.35;;;22.80;99.90;;;;;;4995607;28;20029;-75
2023/08/01 08:17:15;;;;;;;50.42;47.33;;;22.70;99.90;;;;;;5012116;28;20050;-75
2023/08/01 08:19:41;;;;;;;48.25;45.33;;;22.60;99.90;;;;;;4994789;28;20030;-75
2023/08/01 08:22:07;;;;;;;51.45;48.17;;;22.60;99.90;;;;;;5011624;28;20399;-75
2023/08/01 08:24:33;;;;;;;40.78;38.22;;;22.70;99.90;;;;;;5011448;28;20030;-77
2023/08/01 08:26:59;;;;;;;80.53;76.25;;;22.90;99.90;;;;;;5012484;28;20036;-77
2023/08/01 08:29:25;;;;;;;56.97;53.67;;;23.00;99.90;;;;;;5011575;28;20029;-77
2023/08/01 08:31:52;;;;;;;32.78;30.52;;;22.90;99.90;;;;;;5012024;28;20034;-77
2023/08/01 08:34:18;;;;;;;49.40;46.53;;;22.90;99.90;;;;;;5011110;28;20376;-76
2023/08/01 08:36:46;;;;;;;149.90;142.10;;;22.80;99.90;;;;;;5011313;28;20030;-77
2023/08/01 08:39:12;;;;;;;114.45;108.55;;;22.90;99.90;;;;;;5011062;28;20049;-77
2023/08/01 08:41:40;;;;;;;120.85;114.47;;;23.00;99.90;;;;;;5011328;28;20041;-76
2023/08/01 08:44:07;;;;;;;61.90;58.30;;;23.10;99.90;;;;;;5012576;28;20379;-77
2023/08/01 08:46:34;;;;;;;28.98;26.98;;;23.00;99.90;;;;;;5010833;28;20038;-76
2023/08/01 08:49:00;;;;;;;83.15;78.90;;;22.90;99.90;;;;;;5010810;28;20021;-77
2023/08/01 08:51:27;;;;;;;124.05;117.53;;;22.80;99.90;;;;;;5011061;28;20046;-77
2023/08/01 08:53:54;;;;;;;102.47;97.03;;;22.80;99.90;;;;;;5011215;28;20463;-77
2023/08/01 08:56:20;;;;;;;99.63;94.47;;;23.00;99.90;;;;;;5011044;28;20030;-77
2023/08/01 08:58:46;;;;;;;71.53;67.50;;;23.10;99.90;;;;;;5011149;28;20060;-77
2023/08/01 09:01:13;;;;;;;61.53;58.00;;;23.10;99.90;;;;;;5011870;28;20030;-77
2023/08/01 09:03:39;;;;;;;47.50;44.67;;;23.20;99.90;;;;;;5011881;28;20057;-77
2023/08/01 09:06:12;;;;;;;75.85;71.85;;;22.90;99.90;;;;;;5012373;28;20025;-77
2023/08/01 09:08:39;;;;;;;99.68;94.30;;;22.70;99.90;;;;;;5012173;28;20029;-76
2023/08/01 09:11:05;;;;;;;54.65;51.55;;;22.50;99.90;;;;;;4994824;28;20022;-77
2023/08/01 09:13:31;;;;;;;40.65;38.20;;;22.50;99.90;;;;;;4998366;28;20030;-76
2023/08/01 09:15:57;;;;;;;38.65;36.20;;;22.70;99.90;;;;;;5015376;28;20045;-77
2023/08/01 09:18:24;;;;;;;64.70;60.97;;;22.80;99.90;;;;;;5014190;28;20041;-76
2023/08/01 09:20:50;;;;;;;37.95;35.45;;;22.80;99.90;;;;;;5014578;28;20420;-74
2023/08/01 09:23:16;;;;;;;55.17;52.00;;;22.80;99.90;;;;;;5015967;28;20034;-75
2023/08/01 09:25:43;;;;;;;45.42;42.63;;;22.70;99.90;;;;;;5014516;28;20026;-75
2023/08/01 09:28:22;;;;;;;29.10;27.23;;;22.80;99.90;;;;;;5014610;28;20026;-75
2023/08/01 09:30:57;;;;;;;41.63;39.33;;;22.90;99.90;;;;;;5013359;28;20060;-75
2023/08/01 09:33:24;;;;;;;60.80;56.90;;;23.00;99.90;;;;;;5014509;28;20026;-75
2023/08/01 09:35:51;;;;;;;70.30;66.15;;;23.00;99.90;;;;;;5015474;28;20030;-75
2023/08/01 09:38:17;;;;;;;73.78;69.60;;;22.80;99.90;;;;;;5014155;28;20068;-74
2023/08/01 09:40:44;;;;;;;70.10;66.32;;;22.80;99.90;;;;;;5014456;28;20029;-75
2023/08/01 09:43:13;;;;;;;61.83;58.20;;;22.90;99.90;;;;;;5014172;28;20034;-75
2023/08/01 09:45:52;;;;;;;72.03;68.05;;;23.00;99.90;;;;;;5013284;28;20038;-75
2023/08/01 09:48:26;;;;;;;42.28;39.78;;;22.90;99.90;;;;;;5013970;28;20507;-75
2023/08/01 09:50:53;;;;;;;49.47;46.67;;;22.90;99.90;;;;;;4994482;28;20058;-75
2023/08/01 09:53:19;;;;;;;63.78;60.17;;;22.90;99.90;;;;;;4995673;28;20030;-75
2023/08/01 09:55:45;;;;;;;55.92;52.63;;;22.90;99.90;;;;;;4995530;28;20383;-75
2023/08/01 09:58:11;;;;;;;54.83;51.50;;;22.90;99.90;;;;;;4994293;28;20034;-75
2023/08/01 10:00:37;;;;;;;62.67;59.03;;;23.10;99.90;;;;;;4993467;28;20030;-77
2023/08/01 10:03:03;;;;;;;62.65;59.08;;;23.30;99.90;;;;;;4994177;28;20436;-77
2023/08/01 10:05:34;;;;;;;61.25;57.70;;;23.40;99.90;;;;;;4994382;28;20030;-77
2023/08/01 10:08:00;;;;;;;55.72;52.60;;;23.30;99.90;;;;;;5003264;28;20033;-78
2023/08/01 10:10:27;;;;;;;49.90;46.67;;;23.30;99.90;;;;;;5013749;28;20029;-77
2023/08/01 10:12:55;;;;;;;39.08;36.55;;;23.20;99.90;;;;;;5014809;28;20034;-76
2023/08/01 10:15:21;;;;;;;91.00;86.13;;;23.20;99.90;;;;;;4996851;28;20030;-76
2023/08/01 10:17:47;;;;;;;50.20;46.88;;;23.10;99.90;;;;;;4996893;28;20042;-77
2023/08/01 10:20:13;;;;;;;80.10;75.65;;;23.10;99.90;;;;;;5014809;28;20034;-76
2023/08/01 10:22:40;;;;;;;69.63;65.70;;;23.10;99.90;;;;;;5013208;28;20026;-77
2023/08/01 10:25:07;;;;;;;90.03;85.30;;;23.10;99.90;;;;;;4996174;28;20041;-77
2023/08/01 10:27:35;;;;;;;68.03;64.15;;;23.20;99.90;;;;;;5013492;28;20025;-76
2023/08/01 10:30:02;;;;;;;74.63;70.65;;;23.10;99.90;;;;;;5014213;28;20022;-77
2023/08/01 10:32:34;;;;;;;65.53;61.83;;;23.20;99.90;;;;;;5032283;28;20033;-77
2023/08/01 10:35:00;;;;;;;61.25;57.85;;;23.10;99.90;;;;;;5033177;28;20471;-77
2023/08/01 10:37:26;;;;;;;51.97;48.78;;;23.00;99.90;;;;;;5034138;28;20045;-77
2023/08/01 10:39:57;;;;;;;50.10;47.05;;;22.90;99.90;;;;;;5031994;28;20025;-76
2023/08/01 10:42:23;;;;;;;48.88;46.05;;;22.80;99.90;;;;;;5032565;28;20044;-77
2023/08/01 10:44:49;;;;;;;61.55;58.10;;;22.80;99.90;;;;;;5033769;28;20030;-77
2023/08/01 10:47:15;;;;;;;65.85;62.10;;;22.80;99.90;;;;;;5032223;28;20044;-77
2023/08/01 10:49:42;;;;;;;55.35;52.17;;;22.80;99.90;;;;;;5016145;28;20036;-77
2023/08/01 10:52:29;;;;;;;58.08;54.90;;;22.80;99.90;;;;;;5012962;28;20050;-77
2023/08/01 10:55:07;;;;;;;54.17;51.13;;;22.60;99.90;;;;;;5013064;28;20029;-76
2023/08/01 10:57:35;;;;;;;46.05;43.28;;;22.50;99.90;;;;;;5012435;28;20053;-76
2023/08/01 11:00:03;;;;;;;50.28;47.28;;;22.50;99.90;;;;;;5012520;28;20026;-77
2023/08/01 11:02:30;;;;;;;53.38;50.13;;;22.50;99.90;;;;;;4995710;28;20042;-77
2023/08/01 11:05:04;;;;;;;44.78;41.97;;;22.60;99.90;;;;;;4996662;28;20088;-77
2023/08/01 11:07:31;;;;;;;50.92;47.97;;;22.60;99.90;;;;;;5012786;28;20371;-77
2023/08/01 11:10:10;;;;;;;55.47;52.30;;;22.60;99.90;;;;;;5013788;28;20490;-77
2023/08/01 11:12:37;;;;;;;44.65;41.85;;;22.60;99.90;;;;;;5012070;28;20037;-77
2023/08/01 11:15:05;;;;;;;38.40;35.50;;;22.50;99.90;;;;;;5011999;28;20025;-76
2023/08/01 11:17:32;;;;;;;40.05;37.50;;;22.30;99.90;;;;;;5013501;28;20029;-76
2023/08/01 11:20:07;;;;;;;36.45;34.03;;;22.30;99.90;;;;;;5012542;28;20034;-77
2023/08/01 11:22:33;;;;;;;35.63;33.20;;;22.30;99.90;;;;;;5011968;28;20381;-77
2023/08/01 11:25:00;;;;;;;41.85;38.92;;;22.30;99.90;;;;;;5013597;28;20379;-76
2023/08/01 11:27:26;;;;;;;42.80;39.65;;;22.20;99.90;;;;;;5011974;28;20029;-77
2023/08/01 11:29:53;;;;;;;42.60;39.80;;;22.20;99.90;;;;;;5013468;28;20033;-76
2023/08/01 11:32:23;;;;;;;47.85;44.53;;;22.30;99.90;;;;;;5011707;28;20045;-77
2023/08/01 11:34:49;;;;;;;32.28;29.98;;;22.30;99.90;;;;;;5012046;28;20034;-77
2023/08/01 11:37:19;;;;;;;31.88;29.55;;;22.50;99.90;;;;;;5013273;28;20034;-76
2023/08/01 11:39:46;;;;;;;;;;;22.60;99.90;;;;;;5013712;28;20026;-76
2023/08/01 11:42:16;;;;;;;26.95;24.75;;;22.60;99.90;;;;;;5011789;28;19975;-76
2023/08/01 11:44:42;;;;;;;39.08;36.58;;;22.60;99.90;;;;;;5013379;28;20049;-76
2023/08/01 11:47:16;;;;;;;47.90;45.10;;;22.70;99.90;;;;;;5012709;28;20041;-77
2023/08/01 11:49:46;;;;;;;46.72;43.88;;;22.70;99.90;;;;;;5011776;28;20029;-77
2023/08/01 11:52:25;;;;;;;45.00;42.40;;;22.70;99.90;;;;;;5011952;28;20399;-76
2023/08/01 11:54:52;;;;;;;45.80;42.90;;;22.60;99.90;;;;;;5011893;28;20033;-77
2023/08/01 11:57:18;;;;;;;42.70;39.80;;;22.60;99.90;;;;;;5011426;28;20387;-77
2023/08/01 11:59:51;;;;;;;38.80;36.58;;;22.70;99.90;;;;;;5011860;28;20037;-76
2023/08/01 12:02:35;;;;;;;39.75;37.15;;;22.60;99.90;;;;;;5011155;28;20045;-76
2023/08/01 12:05:02;;;;;;;37.85;35.40;;;22.70;99.90;;;;;;5012958;28;20034;-77
2023/08/01 12:07:29;;;;;;;38.47;35.97;;;22.60;99.90;;;;;;5012913;28;20053;-76
2023/08/01 12:09:58;;;;;;;36.85;34.53;;;22.50;99.90;;;;;;5012893;28;20022;-77
2023/08/01 12:12:26;;;;;;;34.58;32.15;;;22.40;99.90;;;;;;5011317;28;20029;-76
2023/08/01 12:14:52;;;;;;;38.40;35.90;;;22.40;99.90;;;;;;5011696;28;20038;-76
2023/08/01 12:17:19;;;;;;;41.60;38.83;;;22.40;99.90;;;;;;4991364;28;20034;-76
2023/08/01 12:19:45;;;;;;;41.75;38.63;;;22.40;99.90;;;;;;4992016;28;20488;-76
2023/08/01 12:22:12;;;;;;;40.70;37.97;;;22.50;99.90;;;;;;4991785;28;20049;-77
2023/08/01 12:24:38;;;;;;;38.50;35.90;;;22.50;99.90;;;;;;4991805;28;20030;-77
2023/08/01 12:27:06;;;;;;;41.17;38.28;;;22.60;99.90;;;;;;4992562;28;20369;-77